Time;durP1;ratioP1;P1;durP2;ratioP2;P2;SDS_P1;SDS_P2;PMS_P1;PMS_P2;Temp;Humidity;BMP_temperature;BMP_pressure;BME280_temperature;BME280_humidity;BME280_pressure;Samples;Min_cycle;Max_cycle;Signal;HPM_P1;HPM_P2
2022/06/28 00:00:41;;;;;;;0.10;0.10;;;;;;;27.60;34.93;99990.22;4993507;28;20030;-69
2022/06/28 00:03:07;;;;;;;0.10;0.10;;;;;;;27.50;35.30;99980.13;4992883;28;20366;-70
2022/06/28 00:05:33;;;;;;;0.10;0.10;;;;;;;27.38;34.91;99968.44;4993131;28;20097;-69
2022/06/28 00:07:58;;;;;;;0.10;0.10;;;;;;;27.35;35.09;99974.31;4992473;28;20037;-70
2022/06/28 00:10:24;;;;;;;0.10;0.10;;;;;;;27.27;35.20;99964.50;4993019;28;20038;-70
2022/06/28 00:12:50;;;;;;;0.10;0.10;;;;;;;27.30;35.50;99960.69;4992949;28;20503;-69
2022/06/28 00:18:01;;;;;;;0.10;0.10;;;;;;;27.24;35.37;99946.28;4994302;28;20037;-69
2022/06/28 00:20:27;;;;;;;0.10;0.10;;;;;;;27.37;35.35;99961.09;4976506;28;20081;-69
2022/06/28 00:22:55;;;;;;;0.10;0.10;;;;;;;27.37;35.37;99971.75;4993238;28;20033;-69
2022/06/28 00:25:21;;;;;;;0.10;0.10;;;;;;;27.26;35.69;99955.16;4992842;28;20037;-69
2022/06/28 00:27:46;;;;;;;0.10;0.10;;;;;;;27.13;35.64;99949.66;4992922;28;20030;-69
2022/06/28 00:30:12;;;;;;;0.10;0.10;;;;;;;27.15;35.69;99955.66;4992873;28;20037;-69
2022/06/28 00:32:38;;;;;;;0.10;0.10;;;;;;;27.20;35.91;99956.28;4993194;28;20417;-69
2022/06/28 00:35:05;;;;;;;0.10;0.10;;;;;;;27.10;35.59;99947.75;4993055;28;20034;-68
2022/06/28 00:37:33;;;;;;;0.10;0.10;;;;;;;27.14;35.92;99931.25;4992640;28;20034;-70
2022/06/28 00:39:59;;;;;;;0.10;0.10;;;;;;;27.14;35.52;99936.16;4992786;28;20038;-70
2022/06/28 00:42:27;;;;;;;0.10;0.10;;;;;;;27.14;35.56;99908.41;4992747;28;20445;-69
2022/06/28 00:44:53;;;;;;;0.10;0.10;;;;;;;27.17;35.33;99905.88;4992912;28;20057;-69
2022/06/28 00:47:19;;;;;;;0.10;0.10;;;;;;;27.17;35.46;99900.16;4993565;28;20449;-69
2022/06/28 00:49:45;;;;;;;0.10;0.10;;;;;;;27.38;35.42;99910.50;4993026;28;20030;-69
2022/06/28 00:52:12;;;;;;;0.10;0.10;;;;;;;27.46;35.08;99920.28;4992624;28;20414;-69
2022/06/28 00:54:38;;;;;;;0.10;0.10;;;;;;;27.35;35.62;99928.59;4992689;28;20033;-69
2022/06/28 00:57:04;;;;;;;0.10;0.10;;;;;;;27.33;34.87;99931.97;4992348;28;20089;-69
2022/06/28 00:59:30;;;;;;;0.10;0.10;;;;;;;27.30;34.36;99920.69;4992923;28;20488;-68
2022/06/28 01:01:57;;;;;;;0.10;0.10;;;;;;;27.30;33.93;99915.00;4993153;28;20034;-69
2022/06/28 01:04:23;;;;;;;0.10;0.10;;;;;;;27.34;34.17;99904.19;4992838;28;20552;-69
2022/06/28 01:06:52;;;;;;;0.10;0.10;;;;;;;27.36;34.22;99921.63;4992853;28;20121;-69
2022/06/28 01:09:17;;;;;;;0.10;0.10;;;;;;;27.47;33.86;99939.00;4992790;28;20046;-68
2022/06/28 01:11:43;;;;;;;0.10;0.10;;;;;;;27.47;33.87;99950.44;4992777;28;20046;-69
2022/06/28 01:14:09;;;;;;;0.10;0.10;;;;;;;27.56;33.53;99938.16;4992531;28;20026;-69
2022/06/28 01:16:36;;;;;;;0.10;0.10;;;;;;;27.66;33.21;99931.91;4992749;28;20030;-69
2022/06/28 01:19:03;;;;;;;0.10;0.10;;;;;;;27.66;33.26;99934.75;4992643;28;20047;-68
2022/06/28 01:21:30;;;;;;;0.10;0.10;;;;;;;27.76;33.55;99926.16;4992999;28;20485;-69
2022/06/28 01:23:56;;;;;;;0.10;0.10;;;;;;;27.82;33.72;99927.06;4996006;28;20072;-68
2022/06/28 01:26:25;;;;;;;0.10;0.10;;;;;;;27.79;33.51;99919.44;4997797;28;20034;-69
2022/06/28 01:28:51;;;;;;;0.10;0.10;;;;;;;27.79;33.47;99934.53;4996288;28;20385;-69
2022/06/28 01:31:18;;;;;;;0.10;0.10;;;;;;;27.88;32.96;99925.09;4996232;28;20451;-70
2022/06/28 01:33:47;;;;;;;0.10;0.10;;;;;;;27.84;32.63;99924.50;4995819;28;20030;-69
2022/06/28 01:36:13;;;;;;;0.10;0.10;;;;;;;27.81;32.78;99936.91;4996048;28;20038;-69
2022/06/28 01:38:40;;;;;;;0.10;0.10;;;;;;;27.74;32.99;99937.28;4995664;28;20061;-69
2022/06/28 01:41:08;;;;;;;0.10;0.10;;;;;;;27.74;32.93;99931.56;4997511;28;20440;-68
2022/06/28 01:43:36;;;;;;;0.10;0.10;;;;;;;27.71;33.33;99939.03;4996010;28;20026;-69
2022/06/28 01:46:06;;;;;;;0.10;0.10;;;;;;;27.93;33.11;99938.72;4995692;28;20026;-69
2022/06/28 01:48:33;;;;;;;0.10;0.10;;;;;;;27.54;33.29;99941.53;4995730;28;20026;-69
2022/06/28 01:50:59;;;;;;;0.10;0.10;;;;;;;27.41;33.40;99950.31;4995925;28;20085;-69
2022/06/28 01:53:25;;;;;;;0.10;0.10;;;;;;;27.48;33.50;99952.00;4996646;28;20508;-69
2022/06/28 01:55:51;;;;;;;0.10;0.10;;;;;;;27.29;34.11;99947.69;4996046;28;20030;-68
2022/06/28 01:58:16;;;;;;;0.10;0.10;;;;;;;27.15;34.28;99960.59;4995470;28;20134;-70
2022/06/28 02:00:42;;;;;;;0.10;0.10;;;;;;;27.09;34.94;99963.31;4995974;28;20041;-69
2022/06/28 02:03:08;;;;;;;0.10;0.10;;;;;;;27.10;34.71;99961.25;4995324;28;20355;-69
2022/06/28 02:05:34;;;;;;;0.10;0.10;;;;;;;27.08;34.66;99958.09;4995356;28;20026;-70
2022/06/28 02:08:01;;;;;;;0.10;0.10;;;;;;;27.25;34.79;99970.69;4996879;28;20456;-69
2022/06/28 02:10:28;;;;;;;0.10;0.10;;;;;;;27.20;35.10;99967.72;4995152;28;20501;-68
2022/06/28 02:12:56;;;;;;;0.10;0.10;;;;;;;27.21;35.10;99966.44;4995417;28;20034;-69
2022/06/28 02:15:22;;;;;;;0.10;0.10;;;;;;;27.17;35.21;99966.63;4995180;28;20117;-69
2022/06/28 02:17:47;;;;;;;0.10;0.10;;;;;;;27.28;35.13;99961.19;4995097;28;20061;-69
2022/06/28 02:20:13;;;;;;;0.10;0.10;;;;;;;27.26;35.08;99960.06;4994647;28;20154;-69
2022/06/28 02:22:39;;;;;;;0.10;0.10;;;;;;;27.31;34.92;99967.97;4995302;28;20029;-70
2022/06/28 02:25:06;;;;;;;0.10;0.10;;;;;;;27.14;34.98;99965.53;4995504;28;20026;-70
2022/06/28 02:27:32;;;;;;;0.10;0.10;;;;;;;27.00;35.23;99977.59;4994646;28;20121;-70
2022/06/28 02:29:58;;;;;;;0.10;0.10;;;;;;;26.92;35.22;99956.38;4995389;28;20041;-70
2022/06/28 02:32:29;;;;;;;0.10;0.10;;;;;;;26.91;35.94;99974.78;4995074;28;20426;-69
2022/06/28 02:40:22;;;;;;;0.10;0.10;;;;;;;26.70;35.97;99990.06;4995969;28;20495;-69
2022/06/28 02:42:54;;;;;;;0.10;0.10;;;;;;;26.51;36.17;99992.94;4994427;28;20038;-69
2022/06/28 02:45:23;;;;;;;0.10;0.10;;;;;;;26.42;36.17;99995.81;4994466;28;20065;-70
2022/06/28 02:47:49;;;;;;;0.10;0.10;;;;;;;26.34;36.65;99994.50;4994588;28;20106;-71
2022/06/28 02:50:15;;;;;;;0.10;0.10;;;;;;;26.33;36.70;99998.63;4978482;28;20038;-70
2022/06/28 02:52:41;;;;;;;0.10;0.10;;;;;;;26.36;36.34;100000.53;4994910;28;20089;-68
2022/06/28 02:55:07;;;;;;;0.10;0.10;;;;;;;26.21;37.00;100000.38;4978405;28;20420;-69
2022/06/28 02:57:34;;;;;;;0.10;0.10;;;;;;;26.33;36.45;100004.34;4994383;28;20119;-69
2022/06/28 03:00:01;;;;;;;0.10;0.10;;;;;;;26.17;37.19;100001.81;4994318;28;20034;-69
2022/06/28 03:02:30;;;;;;;0.10;0.10;;;;;;;25.97;36.97;100000.19;4994423;28;20030;-68
2022/06/28 03:04:55;;;;;;;0.10;0.10;;;;;;;26.08;36.66;100017.63;4994399;28;20481;-69
2022/06/28 03:07:26;;;;;;;0.10;0.10;;;;;;;26.20;36.69;100017.94;4994200;28;20026;-69
2022/06/28 03:09:52;;;;;;;0.10;0.10;;;;;;;26.10;36.96;100012.25;4994418;28;20064;-69
2022/06/28 03:12:17;;;;;;;0.10;0.10;;;;;;;26.20;36.77;100017.94;4994227;28;20426;-70
2022/06/28 03:14:45;;;;;;;0.10;0.10;;;;;;;26.26;36.79;100022.56;4994008;28;20042;-69
2022/06/28 03:17:11;;;;;;;0.10;0.10;;;;;;;26.19;36.68;100024.94;4993988;28;20033;-69
2022/06/28 03:19:36;;;;;;;0.10;0.10;;;;;;;26.24;36.88;100019.38;4993755;28;20054;-69
2022/06/28 03:22:02;;;;;;;0.10;0.10;;;;;;;26.18;36.58;100017.66;4994215;28;20034;-69
2022/06/28 03:24:28;;;;;;;0.10;0.10;;;;;;;26.23;36.98;100006.41;4994386;28;20385;-70
2022/06/28 03:26:53;;;;;;;0.10;0.10;;;;;;;26.38;36.96;100012.25;4994110;28;20034;-69
2022/06/28 03:29:19;;;;;;;0.10;0.10;;;;;;;26.34;36.87;100014.47;4993769;28;20027;-69
2022/06/28 03:31:47;;;;;;;0.10;0.10;;;;;;;26.23;37.22;100017.00;4993687;28;20105;-69
2022/06/28 03:34:13;;;;;;;0.10;0.10;;;;;;;26.37;36.71;100016.38;4993647;28;20034;-69
2022/06/28 03:36:41;;;;;;;0.10;0.10;;;;;;;26.23;36.69;100017.00;4993443;28;20038;-69
2022/06/28 03:39:07;;;;;;;0.10;0.10;;;;;;;26.07;37.11;100021.75;4993637;28;20089;-71
2022/06/28 03:41:35;;;;;;;0.10;0.10;;;;;;;26.05;37.37;100020.66;4993810;28;20432;-70
2022/06/28 03:44:01;;;;;;;0.10;0.10;;;;;;;26.06;37.07;100025.09;4994022;28;20037;-69
2022/06/28 03:46:26;;;;;;;0.10;0.10;;;;;;;26.09;36.71;100024.91;4993148;28;20031;-69
2022/06/28 03:48:52;;;;;;;0.10;0.10;;;;;;;26.11;36.51;100024.47;4993390;28;20026;-69
2022/06/28 03:51:20;;;;;;;0.10;0.10;;;;;;;26.26;36.37;100021.75;4993344;28;20042;-69
2022/06/28 03:53:45;;;;;;;0.10;0.10;;;;;;;26.18;36.68;100018.44;4993081;28;20018;-69
2022/06/28 03:56:11;;;;;;;0.10;0.10;;;;;;;26.27;36.33;100029.06;4993527;28;20037;-69
2022/06/28 03:58:37;;;;;;;0.10;0.10;;;;;;;26.25;36.21;100032.38;4992961;28;20531;-69
2022/06/28 04:01:03;;;;;;;0.10;0.10;;;;;;;26.21;36.46;100037.47;4993263;28;20034;-69
2022/06/28 04:03:29;;;;;;;0.10;0.10;;;;;;;26.23;36.49;100039.81;4992945;28;20049;-69
2022/06/28 04:05:55;;;;;;;0.10;0.10;;;;;;;26.28;36.78;100042.03;4993304;28;20137;-68
2022/06/28 04:08:21;;;;;;;0.10;0.10;;;;;;;26.37;36.10;100045.69;4993107;28;20042;-69
2022/06/28 04:10:47;;;;;;;0.10;0.10;;;;;;;26.45;35.95;100040.50;4992849;28;20036;-69
2022/06/28 04:13:13;;;;;;;0.10;0.10;;;;;;;26.50;35.79;100037.00;4993254;28;20049;-69
2022/06/28 04:15:39;;;;;;;0.10;0.10;;;;;;;26.56;35.53;100046.50;4992842;28;20473;-69
2022/06/28 04:18:05;;;;;;;0.10;0.10;;;;;;;26.62;35.67;100044.59;4992965;28;20030;-69
2022/06/28 04:20:32;;;;;;;0.10;0.10;;;;;;;26.67;35.86;100046.00;4992702;28;20490;-69
2022/06/28 04:23:00;;;;;;;0.10;0.10;;;;;;;26.83;35.16;100047.75;4993233;28;20489;-69
2022/06/28 04:25:26;;;;;;;0.10;0.10;;;;;;;26.98;35.13;100045.81;4993250;28;20030;-69
2022/06/28 04:27:56;;;;;;;0.10;0.10;;;;;;;27.20;34.50;100048.47;4992927;28;20137;-69
2022/06/28 04:30:24;;;;;;;0.10;0.10;;;;;;;27.44;34.52;100053.47;4992865;28;20101;-70
2022/06/28 04:32:50;;;;;;;0.10;0.10;;;;;;;27.71;34.72;100058.31;4993088;28;20469;-69
2022/06/28 04:35:16;;;;;;;0.10;0.10;;;;;;;27.84;34.97;100056.78;4993130;28;20041;-69
2022/06/28 04:37:43;;;;;;;0.10;0.10;;;;;;;28.07;34.96;100062.97;4992801;28;20389;-69
2022/06/28 04:40:10;;;;;;;0.10;0.10;;;;;;;28.34;34.19;100062.06;4992606;28;20034;-70
2022/06/28 04:42:36;;;;;;;0.10;0.10;;;;;;;28.60;33.70;100060.22;4994109;28;20038;-70
2022/06/28 04:45:01;;;;;;;0.10;0.10;;;;;;;28.87;32.88;100064.09;4992738;28;20124;-72
2022/06/28 04:47:27;;;;;;;0.10;0.10;;;;;;;29.17;33.00;100065.72;4992740;28;20061;-69
2022/06/28 04:49:52;;;;;;;0.10;0.10;;;;;;;29.36;32.97;100056.94;4992987;28;20042;-70
2022/06/28 04:52:18;;;;;;;0.10;0.10;;;;;;;29.66;32.75;100063.41;4992541;28;20469;-70
2022/06/28 04:54:44;;;;;;;0.10;0.10;;;;;;;29.94;32.36;100066.72;4992776;28;20081;-69
2022/06/28 04:57:09;;;;;;;0.10;0.10;;;;;;;30.02;32.72;100062.09;4993447;28;20030;-69
2022/06/28 04:59:35;;;;;;;0.10;0.10;;;;;;;30.31;32.05;100063.28;4996455;28;20062;-69
2022/06/28 05:02:00;;;;;;;0.10;0.10;;;;;;;30.58;31.69;100057.09;4996282;28;20034;-69
2022/06/28 05:04:26;;;;;;;0.10;0.10;;;;;;;30.84;30.98;100057.16;4996489;28;20113;-70
2022/06/28 05:06:54;;;;;;;0.10;0.10;;;;;;;30.98;30.37;100058.31;4996429;28;20050;-70
2022/06/28 05:09:20;;;;;;;0.10;0.10;;;;;;;31.32;30.03;100067.25;4996456;28;20065;-70
2022/06/28 05:11:45;;;;;;;0.10;0.10;;;;;;;31.53;30.24;100065.88;4996380;28;20157;-70
2022/06/28 05:14:11;;;;;;;0.10;0.10;;;;;;;31.94;29.77;100059.91;4996511;28;20058;-70
2022/06/28 05:16:36;;;;;;;0.10;0.10;;;;;;;32.26;29.57;100063.47;4996277;28;20531;-70
2022/06/28 05:19:02;;;;;;;0.10;0.10;;;;;;;32.63;28.62;100063.34;4996215;28;20077;-70
2022/06/28 05:21:27;;;;;;;0.10;0.10;;;;;;;32.91;28.88;100071.31;4996653;28;20492;-70
2022/06/28 05:23:55;;;;;;;0.10;0.10;;;;;;;33.28;28.22;100071.88;4996568;28;20034;-70
2022/06/28 05:26:21;;;;;;;0.10;0.10;;;;;;;33.11;29.52;100060.31;4996067;28;20037;-70
2022/06/28 05:28:46;;;;;;;0.10;0.10;;;;;;;32.65;30.69;100060.72;4995245;28;20030;-69
2022/06/28 05:31:12;;;;;;;0.10;0.10;;;;;;;32.61;30.56;100065.97;4995971;28;20181;-69
2022/06/28 05:33:37;;;;;;;0.10;0.10;;;;;;;32.54;30.94;100063.59;4996280;28;20495;-69
2022/06/28 05:36:03;;;;;;;0.10;0.10;;;;;;;31.94;31.43;100065.66;4995930;28;20031;-69
2022/06/28 05:38:30;;;;;;;0.10;0.10;;;;;;;32.06;30.46;100062.31;4995762;28;20050;-69
2022/06/28 05:40:56;;;;;;;0.10;0.10;;;;;;;32.24;30.36;100074.72;4996272;28;20045;-69
2022/06/28 05:43:21;;;;;;;0.10;0.10;;;;;;;32.21;28.20;100073.63;4995605;28;20389;-69
2022/06/28 05:45:47;;;;;;;0.10;0.10;;;;;;;32.81;27.56;100085.13;4995668;28;20034;-69
2022/06/28 05:48:12;;;;;;;0.10;0.10;;;;;;;32.69;26.82;100075.69;4996124;28;20373;-70
2022/06/28 05:50:38;;;;;;;0.10;0.10;;;;;;;32.74;26.85;100077.00;4995833;28;20470;-70
2022/06/28 05:53:03;;;;;;;0.10;0.10;;;;;;;32.82;27.16;100081.75;4995291;28;20485;-72
2022/06/28 05:55:30;;;;;;;0.10;0.10;;;;;;;33.08;26.98;100081.56;4995638;28;20027;-68
2022/06/28 05:57:56;;;;;;;0.10;0.10;;;;;;;33.77;26.71;100088.91;4995895;28;20449;-69
2022/06/28 06:00:24;;;;;;;0.10;0.10;;;;;;;33.70;27.03;100084.47;4995655;28;20031;-69
2022/06/28 06:02:56;;;;;;;0.10;0.10;;;;;;;34.13;26.89;100069.69;4995580;28;20117;-70
2022/06/28 06:05:25;;;;;;;0.10;0.10;;;;;;;34.70;26.66;100084.72;4995459;28;20140;-70
2022/06/28 06:07:53;;;;;;;0.10;0.10;;;;;;;35.25;25.93;100079.91;4996013;28;20046;-70
2022/06/28 06:10:21;;;;;;;0.10;0.10;;;;;;;35.31;26.34;100089.31;4996752;28;20385;-70
2022/06/28 06:12:49;;;;;;;0.10;0.10;;;;;;;35.46;25.67;100086.06;4992315;28;20038;-70
2022/06/28 06:15:20;;;;;;;0.10;0.10;;;;;;;35.49;26.19;100076.31;4996445;28;20034;-70
2022/06/28 06:17:48;;;;;;;0.10;0.10;;;;;;;35.59;26.36;100086.22;4992563;28;20042;-70
2022/06/28 06:20:41;;;;;;;0.10;0.10;;;;;;;35.51;25.53;100088.91;5011585;28;20054;-72
2022/06/28 06:23:11;;;;;;;0.10;0.10;;;;;;;35.29;26.02;100080.41;5013008;28;20030;-71
2022/06/28 06:25:41;;;;;;;0.10;0.10;;;;;;;35.22;25.89;100087.56;4995318;28;20037;-69
2022/06/28 06:28:10;;;;;;;0.10;0.10;;;;;;;36.08;25.50;100094.94;5013404;28;20061;-70
2022/06/28 06:30:39;;;;;;;0.10;0.10;;;;;;;36.31;24.49;100090.47;5013278;28;20044;-71
2022/06/28 06:33:08;;;;;;;0.10;0.10;;;;;;;37.11;23.31;100091.00;4997922;28;20029;-72
2022/06/28 06:35:36;;;;;;;0.10;0.10;;;;;;;37.42;22.88;100090.25;5015894;28;20476;-70
2022/06/28 06:38:01;;;;;;;0.10;0.10;;;;;;;38.00;22.35;100097.41;4997830;28;20022;-70
2022/06/28 06:40:28;;;;;;;0.10;0.10;;;;;;;38.16;21.94;100098.44;4998011;28;20052;-70
2022/06/28 06:42:54;;;;;;;0.10;0.10;;;;;;;38.32;22.04;100093.66;4997922;28;20120;-70
2022/06/28 06:45:19;;;;;;;0.10;0.10;;;;;;;38.85;21.12;100100.19;4997684;28;20064;-69
2022/06/28 06:47:45;;;;;;;0.10;0.10;;;;;;;39.19;20.67;100088.53;4997863;28;20022;-70
2022/06/28 06:50:10;;;;;;;0.10;0.10;;;;;;;38.78;21.16;100084.22;4997412;28;20092;-70
2022/06/28 06:52:36;;;;;;;0.10;0.10;;;;;;;38.99;20.98;100081.34;4997993;28;20032;-70
2022/06/28 06:55:02;;;;;;;0.10;0.10;;;;;;;39.15;20.99;100081.47;4997820;28;20037;-70
2022/06/28 06:57:28;;;;;;;0.10;0.10;;;;;;;38.85;20.92;100088.53;4997457;28;20034;-70
2022/06/28 06:59:54;;;;;;;0.10;0.10;;;;;;;38.09;23.83;100078.75;4997074;28;20092;-69
2022/06/28 07:02:20;;;;;;;0.10;0.10;;;;;;;36.56;26.44;100067.28;4997051;28;20025;-69
2022/06/28 07:04:45;;;;;;;0.10;0.10;;;;;;;36.40;26.50;100078.50;4997056;28;20033;-69
2022/06/28 07:07:13;;;;;;;0.10;0.10;;;;;;;36.90;24.88;100067.59;4997487;28;20037;-69
2022/06/28 07:09:38;;;;;;;0.10;0.10;;;;;;;36.81;25.20;100070.84;4997067;28;20041;-69
2022/06/28 07:12:07;;;;;;;0.10;0.10;;;;;;;36.95;24.82;100067.50;4997436;28;20026;-69
2022/06/28 07:14:32;;;;;;;0.10;0.10;;;;;;;37.08;26.13;100066.00;4997525;28;20465;-69
2022/06/28 07:16:58;;;;;;;0.10;0.10;;;;;;;37.39;24.78;100068.13;4997658;28;20022;-69
2022/06/28 07:19:26;;;;;;;0.10;0.10;;;;;;;37.64;23.14;100065.06;4996719;28;20053;-70
2022/06/28 07:21:51;;;;;;;0.10;0.10;;;;;;;38.20;20.83;100066.94;4997444;28;20465;-70
2022/06/28 07:24:19;;;;;;;0.10;0.10;;;;;;;38.67;19.63;100061.19;4997036;28;20033;-70
2022/06/28 07:26:45;;;;;;;0.10;0.10;;;;;;;38.47;19.27;100050.28;4997236;28;20361;-69
2022/06/28 07:29:12;;;;;;;0.10;0.10;;;;;;;38.69;19.27;100058.47;4997669;28;20032;-69
2022/06/28 07:31:37;;;;;;;0.10;0.10;;;;;;;38.52;19.30;100055.19;5014815;28;20029;-69
2022/06/28 07:34:05;;;;;;;0.10;0.10;;;;;;;37.93;21.75;100029.19;4996860;28;20030;-69
2022/06/28 07:36:34;;;;;;;0.10;0.10;;;;;;;38.11;22.71;100047.03;4997178;28;20365;-69
2022/06/28 07:38:59;;;;;;;0.10;0.10;;;;;;;37.70;21.02;100042.53;4996733;28;20040;-69
2022/06/28 07:41:25;;;;;;;0.10;0.10;;;;;;;37.94;22.75;100036.56;4997410;28;20030;-69
2022/06/28 07:43:53;;;;;;;0.10;0.10;;;;;;;37.62;22.29;100042.41;4996706;28;20088;-69
2022/06/28 07:46:20;;;;;;;0.10;0.10;;;;;;;36.93;23.65;100035.38;4997229;28;20377;-69
2022/06/28 07:48:46;;;;;;;0.10;0.10;;;;;;;36.72;23.25;100034.38;4996864;28;20030;-70
2022/06/28 07:53:59;;;;;;;0.10;0.10;;;;;;;38.07;20.85;100034.97;5014078;28;20041;-69
2022/06/28 07:56:24;;;;;;;0.10;0.10;;;;;;;38.56;20.51;100046.88;4997292;28;20026;-71
2022/06/28 07:58:52;;;;;;;0.10;0.10;;;;;;;38.25;21.13;100043.56;4996665;28;20461;-70
2022/06/28 08:01:18;;;;;;;0.10;0.10;;;;;;;38.77;21.75;100032.41;4996132;28;20021;-70
2022/06/28 08:03:46;;;;;;;0.10;0.10;;;;;;;38.45;22.22;100038.41;4996250;28;20038;-70
2022/06/28 08:06:12;;;;;;;0.10;0.10;;;;;;;38.52;21.74;100038.53;4996256;28;20026;-70
2022/06/28 08:08:38;;;;;;;0.10;0.10;;;;;;;39.69;19.26;100027.53;4996537;28;20052;-70
2022/06/28 08:11:04;;;;;;;0.10;0.10;;;;;;;39.75;17.63;100034.75;4996758;28;20417;-70
2022/06/28 08:13:29;;;;;;;0.10;0.10;;;;;;;39.94;18.51;100036.59;4996051;28;20396;-70
2022/06/28 08:15:55;;;;;;;0.10;0.10;;;;;;;39.30;17.25;100029.28;4996705;28;20026;-70
2022/06/28 08:18:20;;;;;;;0.10;0.10;;;;;;;39.59;16.39;100026.44;4996148;28;20121;-70
2022/06/28 08:20:46;;;;;;;0.10;0.10;;;;;;;39.87;15.08;100032.28;4992323;28;20054;-70
2022/06/28 08:23:12;;;;;;;0.10;0.10;;;;;;;40.08;15.84;100037.31;4992784;28;20088;-69
2022/06/28 08:25:44;;;;;;;0.10;0.10;;;;;;;40.65;15.94;100025.53;4993091;28;20069;-70
2022/06/28 08:28:11;;;;;;;0.10;0.10;;;;;;;41.14;15.08;100039.84;4992640;28;20551;-70
2022/06/28 08:30:37;;;;;;;0.10;0.10;;;;;;;40.16;14.26;100035.97;4993504;28;20469;-71
2022/06/28 08:33:03;;;;;;;0.10;0.10;;;;;;;40.28;15.98;100042.28;4991623;28;20488;-71
2022/06/28 08:35:32;;;;;;;0.10;0.10;;;;;;;40.95;15.59;100039.44;4993070;28;20034;-70
2022/06/28 08:37:57;;;;;;;0.10;0.10;;;;;;;41.02;13.51;100042.38;4992721;28;20526;-70
2022/06/28 08:40:25;;;;;;;0.10;0.10;;;;;;;41.12;13.82;100045.47;4993017;28;20077;-70
2022/06/28 08:42:55;;;;;;;0.10;0.10;;;;;;;40.71;13.43;100043.63;4992238;28;20116;-70
2022/06/28 08:45:22;;;;;;;0.10;0.10;;;;;;;41.53;13.64;100044.38;4993031;28;20373;-70
2022/06/28 08:47:51;;;;;;;0.10;0.10;;;;;;;41.85;15.00;100045.91;4993633;28;20027;-70
2022/06/28 08:50:51;;;;;;;0.10;0.10;;;;;;;40.96;14.55;100043.91;4993058;28;20469;-70
2022/06/28 08:53:21;;;;;;;0.10;0.10;;;;;;;40.96;14.20;100038.84;4977962;28;20113;-70
2022/06/28 08:55:49;;;;;;;0.10;0.10;;;;;;;41.73;14.46;100041.84;4992406;28;20034;-70
2022/06/28 08:58:15;;;;;;;0.10;0.10;;;;;;;42.00;13.68;100033.44;4992514;28;20117;-71
2022/06/28 09:00:41;;;;;;;0.10;0.10;;;;;;;41.05;14.75;100029.53;4992996;28;20073;-70
2022/06/28 09:03:06;;;;;;;0.10;0.10;;;;;;;40.90;15.12;100032.38;4992668;28;20037;-72
2022/06/28 09:05:33;;;;;;;0.10;0.10;;;;;;;41.14;14.81;100024.50;4994190;28;20458;-71
2022/06/28 09:07:59;;;;;;;0.10;0.10;;;;;;;41.49;15.14;100029.38;4992795;28;20034;-71
2022/06/28 09:10:25;;;;;;;0.10;0.10;;;;;;;41.85;14.22;100029.16;4992434;28;20026;-70
2022/06/28 09:13:07;;;;;;;0.10;0.10;;;;;;;41.32;15.04;100032.84;4992504;28;20084;-70
2022/06/28 09:15:54;;;;;;;0.10;0.10;;;;;;;40.85;16.36;100033.34;4992165;28;20077;-70
2022/06/28 09:18:36;;;;;;;0.10;0.10;;;;;;;40.32;15.87;100022.25;4993068;28;20042;-70
2022/06/28 09:21:06;;;;;;;0.10;0.10;;;;;;;40.92;15.38;100026.00;4992560;28;20070;-70
2022/06/28 09:23:35;;;;;;;0.10;0.10;;;;;;;42.05;15.14;100026.59;4992165;28;20492;-70
2022/06/28 09:26:14;;;;;;;0.10;0.10;;;;;;;42.88;14.23;100027.63;4992213;28;20023;-70
2022/06/28 09:28:45;;;;;;;0.10;0.10;;;;;;;43.33;14.43;100034.56;4992444;28;20465;-71
2022/06/28 09:31:31;;;;;;;0.10;0.10;;;;;;;42.70;14.29;100028.91;4992474;28;20030;-70
2022/06/28 09:34:00;;;;;;;0.10;0.10;;;;;;;41.22;15.59;100022.34;4991389;28;20062;-70
2022/06/28 09:36:30;;;;;;;0.10;0.10;;;;;;;40.93;15.48;100025.44;4992056;28;20031;-70
2022/06/28 09:38:57;;;;;;;0.10;0.10;;;;;;;41.24;15.07;100025.47;4992489;28;20372;-70
2022/06/28 09:41:25;;;;;;;0.10;0.10;;;;;;;40.71;15.60;100026.91;4992203;28;20462;-70
2022/06/28 09:44:02;;;;;;;0.10;0.10;;;;;;;40.20;16.09;100024.72;4994198;28;20437;-70
2022/06/28 09:46:30;;;;;;;0.10;0.10;;;;;;;41.02;14.57;100019.03;4995645;28;20038;-70
2022/06/28 09:48:58;;;;;;;0.10;0.10;;;;;;;42.16;13.82;100025.41;4995813;28;20038;-70
2022/06/28 09:51:26;;;;;;;0.10;0.10;;;;;;;42.93;13.33;100029.53;4995776;28;20042;-71
2022/06/28 09:53:56;;;;;;;0.10;0.10;;;;;;;42.34;13.76;100006.63;4995432;28;20022;-70
2022/06/28 09:56:24;;;;;;;0.10;0.10;;;;;;;42.92;13.69;100027.22;4995724;28;20496;-70
2022/06/28 09:58:51;;;;;;;0.10;0.10;;;;;;;41.87;14.54;100016.91;4997241;28;20109;-70
2022/06/28 10:01:18;;;;;;;0.10;0.10;;;;;;;42.17;14.02;100012.34;4995862;28;20026;-70
2022/06/28 10:03:44;;;;;;;0.10;0.10;;;;;;;42.17;14.03;100015.25;4995386;28;20027;-69
2022/06/28 10:06:10;;;;;;;0.10;0.10;;;;;;;41.50;14.19;100010.53;4995946;28;20041;-70
2022/06/28 10:08:37;;;;;;;0.10;0.10;;;;;;;41.57;14.38;100006.81;4995912;28;20173;-70
2022/06/28 10:11:06;;;;;;;0.10;0.10;;;;;;;41.34;14.51;100003.09;4995318;28;20034;-70
2022/06/28 10:16:48;;;;;;;0.10;0.10;;;;;;;42.59;13.80;99983.31;4996736;28;20045;-70
2022/06/28 10:19:17;;;;;;;0.10;0.10;;;;;;;42.53;13.63;99997.41;4994871;28;20057;-70
2022/06/28 10:21:53;;;;;;;0.10;0.10;;;;;;;42.30;13.70;100000.44;4995086;28;20035;-70
2022/06/28 10:24:23;;;;;;;0.10;0.10;;;;;;;42.59;12.27;99998.75;4995278;28;20477;-69
2022/06/28 10:27:11;;;;;;;0.10;0.10;;;;;;;43.14;11.87;99997.03;4994836;28;20054;-71
2022/06/28 10:29:59;;;;;;;0.10;0.10;;;;;;;43.51;13.06;100000.25;4994775;28;20027;-70
2022/06/28 10:32:46;;;;;;;0.10;0.10;;;;;;;43.81;13.31;100005.06;4995061;28;20374;-71
2022/06/28 10:35:31;;;;;;;0.10;0.10;;;;;;;43.05;13.86;100001.41;4994796;28;20042;-70
2022/06/28 10:38:09;;;;;;;0.10;0.10;;;;;;;43.14;13.83;100000.75;4981063;28;20061;-70
2022/06/28 10:40:41;;;;;;;0.10;0.10;;;;;;;42.93;14.07;99988.56;4994876;28;20040;-70
2022/06/28 10:43:08;;;;;;;0.10;0.10;;;;;;;42.86;14.16;99998.97;4993769;28;20108;-70
2022/06/28 10:46:05;;;;;;;0.10;0.10;;;;;;;42.33;15.38;99990.47;4994874;28;20101;-70
2022/06/28 10:48:56;;;;;;;0.10;0.10;;;;;;;41.68;14.96;99979.34;4995332;28;20420;-69
2022/06/28 10:51:22;;;;;;;0.10;0.10;;;;;;;42.46;15.21;99990.22;4994349;28;20084;-70
2022/06/28 10:54:06;;;;;;;0.10;0.10;;;;;;;42.63;14.72;99984.50;4994389;28;20029;-70
2022/06/28 10:56:43;;;;;;;0.10;0.10;;;;;;;42.43;14.53;99982.63;4993932;28;20032;-71
2022/06/28 10:59:13;;;;;;;0.10;0.10;;;;;;;42.33;15.28;99972.94;4994439;28;20034;-69
2022/06/28 11:01:39;;;;;;;0.10;0.10;;;;;;;42.50;14.89;99981.03;4994573;28;20037;-70
2022/06/28 11:04:24;;;;;;;0.10;0.10;;;;;;;42.71;14.94;99972.75;4994610;28;20038;-74
2022/06/28 11:07:25;;;;;;;0.10;0.10;;;;;;;41.78;16.64;99970.78;4994228;28;20477;-69
2022/06/28 11:10:11;;;;;;;0.10;0.10;;;;;;;41.97;16.21;99982.78;4980911;28;20393;-69
2022/06/28 11:12:44;;;;;;;0.10;0.10;;;;;;;41.69;15.79;99971.34;4993379;28;20124;-69
2022/06/28 11:15:35;;;;;;;0.10;0.10;;;;;;;41.32;15.29;99968.63;4994095;28;20034;-69
2022/06/28 11:18:01;;;;;;;0.10;0.10;;;;;;;41.54;15.44;99967.09;4995481;28;20019;-69
2022/06/28 11:20:29;;;;;;;0.10;0.10;;;;;;;41.34;15.80;99968.88;4993650;28;20053;-71
2022/06/28 11:22:58;;;;;;;0.10;0.10;;;;;;;41.15;16.11;99961.84;4994208;28;20026;-71
2022/06/28 11:27:19;;;;;;;0.10;0.10;;;;;;;41.77;15.57;99963.38;4993828;28;20042;-70
2022/06/28 11:28:33;;;;;;;0.10;0.10;;;;;;;41.47;15.27;99964.97;4994734;28;20049;-70
2022/06/28 11:30:58;;;;;;;0.10;0.10;;;;;;;41.45;15.68;99944.34;4993676;28;20038;-70
2022/06/28 11:33:31;;;;;;;0.10;0.10;;;;;;;41.51;15.30;99956.59;4993834;28;20022;-70
2022/06/28 11:36:00;;;;;;;0.10;0.10;;;;;;;41.55;15.24;99947.41;4994223;28;20031;-69
2022/06/28 11:38:26;;;;;;;0.10;0.10;;;;;;;41.58;15.20;99946.25;4993907;28;20058;-70
2022/06/28 11:40:57;;;;;;;0.10;0.10;;;;;;;41.32;15.47;99953.28;4993659;28;20084;-68
2022/06/28 11:43:25;;;;;;;0.10;0.10;;;;;;;40.98;15.78;99942.00;4994194;28;20032;-70
2022/06/28 11:45:52;;;;;;;0.10;0.10;;;;;;;41.42;15.66;99947.66;4994050;28;20506;-70
2022/06/28 11:48:27;;;;;;;0.10;0.10;;;;;;;41.42;15.47;99938.91;4993665;28;20117;-70